If you wish to contribute or participate in the discussions about articles you are invited to join SKYbrary as a registered user

 Actions

Noi Bai International Airport

From SKYbrary Wiki

VVNB /
Revision as of 07:12, 1 July 2020 by Admin (talk | contribs) (Text replacement - "{{Show_Airportmaps}} " to "{{ShowAirportMap|TerrainZoom=10|AirportLayoutZoom=13}} ")
(diff) ← Older revision | Latest revision (diff) | Newer revision → (diff)
Airport
ICAO: VVNB – IATA: HAN
Summary
Name Noi Bai International Airport
Region Asia and Pacific
Territory Vietnam VN.gif
Location Hanoi, Hanoi
Serving Hanoi
Elevation 11.887 m
39 ft11.887 m
Coordinates 21° 13' 16.00" N, 105° 48' 25.99" E
Runways
Designator Length Width Surface ROPS
11L/29R 3800 m12,467.192 ft
45 m147.638 ft
CON yes/yes
11R/29L 3800 m12,467.192 ft
45 m147.638 ft
CON yes/yes


METAR
Observation VVNB 190800Z 34008KT CAVOK 23/13 Q1016 NOSIG
Station Ha Noi
Date/Time 19 October 2020 08:00:00
Wind direction 340°
Wind speed 08 kts
Lowest cloud amount clouds and visibility OK
Temperature 23°C
Dew point 13°C
Humidity 53%
QNH 1016 hPa
Weather condition n/a

LOS
Tag(s) Parallel Runway Operation

International airport serving the city of Hanoi, Vietnam.

Climatology

Humid subtropical climate (Köppen climate classification Cwa)

Maps

Terrain

Loading map...

Airport Layout

Loading map...


Accidents & Serious Incidents at or in vicinity of VVNB

None on SKYbrary